createdAt,value
2022-10-08T00:00:58.610Z,20.70
2022-10-08T00:03:28.479Z,21.10
2022-10-08T00:05:56.278Z,21.15
2022-10-08T00:08:23.651Z,23.10
2022-10-08T00:10:58.669Z,21.50
2022-10-08T00:13:26.878Z,24.00
2022-10-08T00:15:53.677Z,23.40
2022-10-08T00:18:21.543Z,24.58
2022-10-08T00:20:48.338Z,25.48
2022-10-08T00:23:15.999Z,22.67
2022-10-08T00:25:44.119Z,23.90
2022-10-08T00:28:13.574Z,23.90
2022-10-08T00:30:41.467Z,21.98
2022-10-08T00:33:08.804Z,23.42
2022-10-08T00:35:39.147Z,23.63
2022-10-08T00:38:07.446Z,15.67
2022-10-08T00:40:44.301Z,23.27
2022-10-08T00:43:15.794Z,24.80
2022-10-08T00:45:47.861Z,24.15
2022-10-08T00:48:25.482Z,21.73
2022-10-08T00:50:52.238Z,25.52
2022-10-08T00:53:18.692Z,27.35
2022-10-08T00:55:45.052Z,28.10
2022-10-08T00:58:17.015Z,26.73
2022-10-08T01:00:44.317Z,27.30
2022-10-08T01:03:10.993Z,28.65
2022-10-08T01:06:20.566Z,28.08
2022-10-08T01:09:04.885Z,27.35
2022-10-08T01:11:54.532Z,25.55
2022-10-08T01:14:32.792Z,27.23
2022-10-08T01:17:20.225Z,27.55
2022-10-08T01:20:18.230Z,28.73
2022-10-08T01:23:14.215Z,26.58
2022-10-08T01:25:55.785Z,25.92
2022-10-08T01:28:25.066Z,28.92
2022-10-08T01:31:15.204Z,28.85
2022-10-08T01:33:48.049Z,28.02
2022-10-08T01:36:15.798Z,29.23
2022-10-08T01:38:45.777Z,28.83
2022-10-08T01:41:17.388Z,29.70
2022-10-08T01:43:49.224Z,29.58
2022-10-08T01:46:26.941Z,30.17
2022-10-08T01:48:57.946Z,29.45
2022-10-08T01:51:32.419Z,29.80
2022-10-08T01:54:03.232Z,30.92
2022-10-08T01:56:33.026Z,30.90
2022-10-08T01:59:07.018Z,28.80
2022-10-08T02:01:58.966Z,29.63
2022-10-08T02:04:33.547Z,29.98
2022-10-08T02:07:21.021Z,30.45
2022-10-08T02:09:53.557Z,29.58
2022-10-08T02:12:23.086Z,29.98
2022-10-08T02:14:52.987Z,29.55
2022-10-08T02:17:35.765Z,29.98
2022-10-08T02:20:23.083Z,29.35
2022-10-08T02:22:59.276Z,29.73
2022-10-08T02:25:36.944Z,29.20
2022-10-08T02:28:10.573Z,26.13
2022-10-08T02:30:44.287Z,23.95
2022-10-08T02:33:16.190Z,24.77
2022-10-08T02:35:49.487Z,28.10
2022-10-08T02:38:23.485Z,28.50
2022-10-08T02:40:54.612Z,30.02
2022-10-08T02:43:26.500Z,28.30
2022-10-08T02:46:01.364Z,28.05
2022-10-08T02:48:33.602Z,28.35
2022-10-08T02:51:06.116Z,27.35
2022-10-08T02:53:36.052Z,27.80
2022-10-08T02:56:08.246Z,27.35
2022-10-08T02:58:35.002Z,26.52
2022-10-08T03:01:12.277Z,24.77
2022-10-08T03:03:46.387Z,26.08
2022-10-08T03:06:14.682Z,26.35
2022-10-08T03:08:46.334Z,23.25
2022-10-08T03:11:13.708Z,24.95
2022-10-08T03:13:44.899Z,22.13
2022-10-08T03:16:14.251Z,24.20
2022-10-08T03:18:41.428Z,22.45
2022-10-08T03:21:10.608Z,24.75
2022-10-08T03:23:36.944Z,23.08
2022-10-08T03:26:03.330Z,25.02
2022-10-08T03:28:29.802Z,23.90
2022-10-08T03:30:56.332Z,23.45
2022-10-08T03:33:22.972Z,22.52
2022-10-08T03:35:49.354Z,21.52
2022-10-08T03:38:16.477Z,20.05
2022-10-08T03:40:43.969Z,19.83
2022-10-08T03:43:10.379Z,21.58
2022-10-08T03:45:36.780Z,20.25
2022-10-08T03:48:03.218Z,20.88
2022-10-08T03:50:29.576Z,18.92
2022-10-08T03:52:56.013Z,20.02
2022-10-08T03:55:22.347Z,19.05
2022-10-08T03:57:48.932Z,19.50
2022-10-08T04:00:15.433Z,18.85
2022-10-08T04:02:41.874Z,17.98
2022-10-08T04:05:08.585Z,16.50
2022-10-08T04:07:34.989Z,16.27
2022-10-08T04:10:01.391Z,16.83
2022-10-08T04:12:28.877Z,16.48
2022-10-08T04:14:55.240Z,15.98
2022-10-08T04:17:21.607Z,15.32
2022-10-08T04:19:47.978Z,15.88
2022-10-08T04:22:14.320Z,14.75
2022-10-08T04:24:40.676Z,15.45
2022-10-08T04:27:07.070Z,13.40
2022-10-08T04:29:33.435Z,14.40
2022-10-08T04:31:59.808Z,14.55
2022-10-08T04:34:26.166Z,14.55
2022-10-08T04:36:52.507Z,14.02
2022-10-08T04:39:18.880Z,13.82
2022-10-08T04:41:45.250Z,13.73
2022-10-08T04:44:11.602Z,14.27
2022-10-08T04:46:38.108Z,15.85
2022-10-08T04:49:04.623Z,15.63
2022-10-08T04:51:30.989Z,15.07
2022-10-08T04:53:58.225Z,15.07
2022-10-08T04:56:27.282Z,14.27
2022-10-08T04:58:57.097Z,14.65
2022-10-08T05:01:24.872Z,14.50
2022-10-08T05:03:54.470Z,14.75
2022-10-08T05:06:23.846Z,14.75
2022-10-08T05:08:50.700Z,13.00
2022-10-08T05:11:18.100Z,13.55
2022-10-08T05:13:49.893Z,13.20
2022-10-08T05:16:18.117Z,13.35
2022-10-08T05:18:45.436Z,12.73
2022-10-08T05:21:17.325Z,12.55
2022-10-08T05:23:44.343Z,13.43
2022-10-08T05:26:53.149Z,12.93
2022-10-08T05:31:38.784Z,14.48
2022-10-08T05:34:05.707Z,13.07
2022-10-08T05:36:33.304Z,13.77
2022-10-08T05:39:01.552Z,13.77
2022-10-08T05:41:30.896Z,13.40
2022-10-08T05:43:58.630Z,13.10
2022-10-08T05:46:27.284Z,12.85
2022-10-08T05:48:55.430Z,13.05
2022-10-08T05:51:22.484Z,13.25
2022-10-08T05:53:51.327Z,13.93
2022-10-08T05:56:20.678Z,13.25
2022-10-08T05:58:48.241Z,17.23
2022-10-08T06:01:17.152Z,20.00
2022-10-08T06:03:43.842Z,20.13
2022-10-08T06:06:11.563Z,20.08
2022-10-08T06:08:38.326Z,20.05
2022-10-08T06:11:06.024Z,24.33
2022-10-08T06:13:32.641Z,21.23
2022-10-08T06:16:02.162Z,18.52
2022-10-08T06:18:31.816Z,20.15
2022-10-08T06:21:03.237Z,18.58
2022-10-08T06:23:29.590Z,17.60
2022-10-08T06:25:56.010Z,17.85
2022-10-08T06:28:22.491Z,18.73
2022-10-08T06:30:48.893Z,18.33
2022-10-08T06:33:16.786Z,17.67
2022-10-08T06:35:43.136Z,17.42
2022-10-08T06:38:09.560Z,17.33
2022-10-08T06:40:41.864Z,17.73
2022-10-08T06:43:17.262Z,18.77
2022-10-08T06:45:45.185Z,20.38
2022-10-08T06:48:13.131Z,22.15
2022-10-08T06:50:42.549Z,21.38
2022-10-08T06:53:11.399Z,22.40
2022-10-08T06:55:38.140Z,21.45
2022-10-08T06:58:05.504Z,21.63
2022-10-08T07:00:32.458Z,21.05
2022-10-08T07:02:58.897Z,21.30
2022-10-08T07:05:25.288Z,20.02
2022-10-08T07:07:51.658Z,19.75
2022-10-08T07:10:18.652Z,18.58
2022-10-08T07:12:45.455Z,20.30
2022-10-08T07:15:12.474Z,19.65
2022-10-08T07:17:38.821Z,19.75
2022-10-08T07:20:05.915Z,18.80
2022-10-08T07:22:32.265Z,18.40
2022-10-08T07:24:58.729Z,17.13
2022-10-08T07:27:25.077Z,17.15
2022-10-08T07:29:51.411Z,16.92
2022-10-08T07:32:17.846Z,16.67
2022-10-08T07:34:44.290Z,16.95
2022-10-08T07:37:10.708Z,16.63
2022-10-08T07:39:37.095Z,15.45
2022-10-08T07:42:03.611Z,15.55
2022-10-08T07:44:30.026Z,14.75
2022-10-08T07:46:56.510Z,15.68
2022-10-08T07:49:22.938Z,15.68
2022-10-08T07:51:49.383Z,14.25
2022-10-08T07:54:18.049Z,15.50
2022-10-08T07:56:45.264Z,17.08
2022-10-08T07:59:14.965Z,15.07
2022-10-08T08:01:42.559Z,15.45
2022-10-08T08:04:10.444Z,15.25
2022-10-08T08:06:43.114Z,14.70
2022-10-08T08:09:10.439Z,15.30
2022-10-08T08:11:37.258Z,13.63
2022-10-08T08:14:03.836Z,13.02
2022-10-08T08:16:30.334Z,12.70
2022-10-08T08:19:00.361Z,12.82
2022-10-08T08:21:29.594Z,14.93
2022-10-08T08:23:57.466Z,13.38
2022-10-08T08:26:30.047Z,12.93
2022-10-08T08:28:58.529Z,11.23
2022-10-08T08:31:36.451Z,10.90
2022-10-08T08:34:06.407Z,11.07
2022-10-08T08:36:36.891Z,10.02
2022-10-08T08:39:04.543Z,10.07
2022-10-08T08:41:49.026Z,11.10
2022-10-08T08:44:22.187Z,11.15
2022-10-08T08:47:11.409Z,10.95
2022-10-08T08:49:52.046Z,10.02
2022-10-08T08:52:22.971Z,10.32
2022-10-08T08:54:51.176Z,8.75
2022-10-08T08:57:38.039Z,8.02
2022-10-08T09:00:17.625Z,8.27
2022-10-08T09:02:57.823Z,8.55
2022-10-08T09:05:28.260Z,8.38
2022-10-08T09:08:05.918Z,6.25
2022-10-08T09:10:41.074Z,7.22
2022-10-08T09:13:17.678Z,7.25
2022-10-08T09:15:45.291Z,7.30
2022-10-08T09:18:14.377Z,8.18
2022-10-08T09:20:41.254Z,7.07
2022-10-08T09:23:18.959Z,8.23
2022-10-08T09:26:00.515Z,8.05
2022-10-08T09:28:46.483Z,6.35
2022-10-08T09:31:45.154Z,7.35
2022-10-08T09:34:13.170Z,6.75
2022-10-08T09:36:43.943Z,7.45
2022-10-08T09:39:18.398Z,6.57
2022-10-08T09:41:46.899Z,6.25
2022-10-08T09:44:19.819Z,7.20
2022-10-08T09:46:47.466Z,6.95
2022-10-08T09:49:35.209Z,7.07
2022-10-08T09:52:22.186Z,7.32
2022-10-08T09:54:53.312Z,7.07
2022-10-08T09:57:21.784Z,7.25
2022-10-08T09:59:55.972Z,7.38
2022-10-08T10:02:38.562Z,8.50
2022-10-08T10:05:23.372Z,7.07
2022-10-08T10:07:50.712Z,7.47
2022-10-08T10:10:25.785Z,7.47
2022-10-08T10:12:58.024Z,7.95
2022-10-08T10:15:33.427Z,8.18
2022-10-08T10:18:04.692Z,8.00
2022-10-08T10:23:26.203Z,8.38
2022-10-08T10:25:58.766Z,8.40
2022-10-08T10:28:50.936Z,9.10
2022-10-08T10:31:27.251Z,8.40
2022-10-08T10:34:02.156Z,8.75
2022-10-08T10:36:35.476Z,9.05
2022-10-08T10:39:30.042Z,8.20
2022-10-08T10:42:26.479Z,8.45
2022-10-08T10:44:56.072Z,9.00
2022-10-08T10:47:28.317Z,8.70
2022-10-08T10:50:00.274Z,8.80
2022-10-08T10:52:39.512Z,8.25
2022-10-08T10:55:23.956Z,8.32
2022-10-08T10:58:07.319Z,9.38
2022-10-08T11:00:52.347Z,8.18
2022-10-08T11:03:24.814Z,7.57
2022-10-08T11:06:16.076Z,8.10
2022-10-08T11:08:55.286Z,7.20
2022-10-08T11:11:45.232Z,6.78
2022-10-08T11:14:23.777Z,6.75
2022-10-08T11:17:05.158Z,6.57
2022-10-08T11:20:08.066Z,6.30
2022-10-08T11:22:39.416Z,6.38
2022-10-08T11:25:26.144Z,5.43
2022-10-08T11:28:20.222Z,5.70
2022-10-08T11:31:06.859Z,5.07
2022-10-08T11:33:34.299Z,5.97
2022-10-08T11:36:35.294Z,6.00
2022-10-08T11:39:13.296Z,6.05
2022-10-08T11:41:59.640Z,5.18
2022-10-08T11:44:26.773Z,5.25
2022-10-08T11:46:53.278Z,4.78
2022-10-08T11:49:19.625Z,4.90
2022-10-08T11:51:51.928Z,4.10
2022-10-08T11:54:32.077Z,4.20
2022-10-08T11:57:21.360Z,4.38
2022-10-08T12:00:27.099Z,4.20
2022-10-08T12:02:55.399Z,4.32
2022-10-08T12:05:21.789Z,5.18
2022-10-08T12:07:57.485Z,4.20
2022-10-08T12:10:36.621Z,6.22
2022-10-08T12:13:24.978Z,4.63
2022-10-08T12:15:53.095Z,4.68
2022-10-08T12:18:26.524Z,4.10
2022-10-08T12:21:20.269Z,3.58
2022-10-08T12:23:46.872Z,3.85
2022-10-08T12:26:15.971Z,3.55
2022-10-08T12:28:42.416Z,3.45
2022-10-08T12:31:27.976Z,3.50
2022-10-08T12:34:03.457Z,3.80
2022-10-08T12:37:02.667Z,3.60
2022-10-08T12:39:36.671Z,3.92
2022-10-08T12:42:08.958Z,3.58
2022-10-08T12:44:35.403Z,3.92
2022-10-08T12:47:31.123Z,4.07
2022-10-08T12:50:12.868Z,3.30
2022-10-08T12:52:39.344Z,4.00
2022-10-08T12:55:06.784Z,3.67
2022-10-08T12:57:36.587Z,6.25
2022-10-08T13:00:08.563Z,4.03
2022-10-08T13:02:41.016Z,5.18
2022-10-08T13:05:30.705Z,4.55
2022-10-08T13:07:57.916Z,4.57
2022-10-08T13:10:28.184Z,3.85
2022-10-08T13:13:06.116Z,3.20
2022-10-08T13:15:34.513Z,3.60
2022-10-08T13:18:20.564Z,3.55
2022-10-08T13:21:03.827Z,2.42
2022-10-08T13:23:35.793Z,2.90
2022-10-08T13:26:02.789Z,3.15
2022-10-08T13:28:58.564Z,3.03
2022-10-08T13:31:23.430Z,3.88
2022-10-08T13:33:50.063Z,3.70
2022-10-08T13:36:23.273Z,3.47
2022-10-08T13:38:49.992Z,3.15
2022-10-08T13:41:25.088Z,3.85
2022-10-08T13:43:51.476Z,3.38
2022-10-08T13:46:17.888Z,4.15
2022-10-08T13:48:44.893Z,2.83
2022-10-08T13:51:11.653Z,2.75
2022-10-08T13:53:40.994Z,3.58
2022-10-08T13:56:07.583Z,2.50
2022-10-08T13:58:33.929Z,2.80
2022-10-08T14:01:00.315Z,3.42
2022-10-08T14:03:26.723Z,3.17
2022-10-08T14:05:53.188Z,2.17
2022-10-08T14:08:25.025Z,2.13
2022-10-08T14:10:57.555Z,2.10
2022-10-08T14:13:25.164Z,2.63
2022-10-08T14:15:51.792Z,2.65
2022-10-08T14:18:18.225Z,2.65
2022-10-08T14:20:44.706Z,2.65
2022-10-08T14:23:14.149Z,3.85
2022-10-08T14:25:40.543Z,2.45
2022-10-08T14:28:06.955Z,2.45
2022-10-08T14:30:33.402Z,2.50
2022-10-08T14:32:59.749Z,2.10
2022-10-08T14:35:26.228Z,1.80
2022-10-08T14:37:52.605Z,2.30
2022-10-08T14:40:21.579Z,2.05
2022-10-08T14:42:48.586Z,1.92
2022-10-08T14:45:15.322Z,2.47
2022-10-08T14:47:42.160Z,2.20
2022-10-08T14:50:08.986Z,2.38
2022-10-08T14:52:41.705Z,2.13
2022-10-08T14:55:11.971Z,2.35
2022-10-08T14:57:38.432Z,2.22
2022-10-08T15:00:05.943Z,1.92
2022-10-08T15:02:34.162Z,2.30
2022-10-08T15:05:01.635Z,2.28
2022-10-08T15:07:28.862Z,2.13
2022-10-08T15:09:55.231Z,1.77
2022-10-08T15:12:21.644Z,1.88
2022-10-08T15:14:48.067Z,2.20
2022-10-08T15:17:14.461Z,2.50
2022-10-08T15:19:41.028Z,1.88
2022-10-08T15:22:07.457Z,1.70
2022-10-08T15:24:34.267Z,1.75
2022-10-08T15:27:01.165Z,2.03
2022-10-08T15:29:27.582Z,1.95
2022-10-08T15:31:54.031Z,2.03
2022-10-08T15:34:20.913Z,2.10
2022-10-08T15:36:47.567Z,1.60
2022-10-08T15:39:16.728Z,1.70
2022-10-08T15:41:49.023Z,2.08
2022-10-08T15:44:18.084Z,1.90
2022-10-08T15:46:45.398Z,1.90
2022-10-08T15:49:12.147Z,1.63
2022-10-08T15:51:38.594Z,1.90
2022-10-08T15:54:05.217Z,1.83
2022-10-08T15:56:31.702Z,1.73
2022-10-08T15:58:59.496Z,2.15
2022-10-08T16:01:26.654Z,2.45
2022-10-08T16:03:54.620Z,1.90
2022-10-08T16:06:24.176Z,2.00
2022-10-08T16:08:51.333Z,2.42
2022-10-08T16:11:19.647Z,2.03
2022-10-08T16:13:49.081Z,1.90
2022-10-08T16:16:17.878Z,1.80
2022-10-08T16:18:45.648Z,1.98
2022-10-08T16:21:13.237Z,2.15
2022-10-08T16:23:39.740Z,1.67
2022-10-08T16:26:10.670Z,2.15
2022-10-08T16:31:06.308Z,2.80
2022-10-08T16:33:32.781Z,3.42
2022-10-08T16:36:05.938Z,3.58
2022-10-08T16:38:33.456Z,3.42
2022-10-08T16:41:20.688Z,3.15
2022-10-08T16:43:51.871Z,2.67
2022-10-08T16:49:06.181Z,3.03
2022-10-08T16:51:35.905Z,3.20
2022-10-08T16:54:04.127Z,2.70
2022-10-08T16:56:33.220Z,3.10
2022-10-08T16:59:07.917Z,4.78
2022-10-08T17:01:35.496Z,3.63
2022-10-08T17:04:05.839Z,3.10
2022-10-08T17:06:33.264Z,3.73
2022-10-08T17:08:59.685Z,3.50
2022-10-08T17:11:26.186Z,4.32
2022-10-08T17:13:55.735Z,4.00
2022-10-08T17:16:24.007Z,3.63
2022-10-08T17:18:52.782Z,2.70
2022-10-08T17:21:19.683Z,2.72
2022-10-08T17:23:46.466Z,3.22
2022-10-08T17:26:16.151Z,3.15
2022-10-08T17:28:45.196Z,2.90
2022-10-08T17:31:14.644Z,2.72
2022-10-08T17:33:41.796Z,2.67
2022-10-08T17:36:17.616Z,4.50
2022-10-08T17:38:45.620Z,5.13
2022-10-08T17:41:23.644Z,6.38
2022-10-08T17:43:51.115Z,6.60
2022-10-08T17:46:20.343Z,6.38
2022-10-08T17:48:47.036Z,6.90
2022-10-08T17:51:16.476Z,6.63
2022-10-08T17:53:43.773Z,6.38
2022-10-08T17:56:12.469Z,6.43
2022-10-08T17:58:39.619Z,5.93
2022-10-08T18:01:10.118Z,5.53
2022-10-08T18:03:37.733Z,5.10
2022-10-08T18:06:05.302Z,5.80
2022-10-08T18:08:31.995Z,5.72
2022-10-08T18:11:02.663Z,5.93
2022-10-08T18:13:29.084Z,5.82
2022-10-08T18:15:55.675Z,5.75
2022-10-08T18:18:22.112Z,6.15
2022-10-08T18:20:56.969Z,6.65
2022-10-08T18:23:24.482Z,5.82
2022-10-08T18:25:53.879Z,7.10
2022-10-08T18:28:22.046Z,7.18
2022-10-08T18:30:48.648Z,7.38
2022-10-08T18:33:15.597Z,8.57
2022-10-08T18:35:41.988Z,10.73
2022-10-08T18:38:08.345Z,10.55
2022-10-08T18:40:34.816Z,9.63
2022-10-08T18:43:01.199Z,9.60
2022-10-08T18:45:27.714Z,9.63
2022-10-08T18:47:54.106Z,10.43
2022-10-08T18:50:20.482Z,11.70
2022-10-08T18:52:47.076Z,15.93
2022-10-08T18:55:14.123Z,16.15
2022-10-08T18:57:40.820Z,18.27
2022-10-08T19:00:07.906Z,17.25
2022-10-08T19:02:34.453Z,14.77
2022-10-08T19:05:00.998Z,18.20
2022-10-08T19:07:27.419Z,14.15
2022-10-08T19:09:53.843Z,14.77
2022-10-08T19:12:20.207Z,12.02
2022-10-08T19:14:47.228Z,12.13
2022-10-08T19:17:13.606Z,6.43
2022-10-08T19:19:39.977Z,7.93
2022-10-08T19:22:06.381Z,7.22
2022-10-08T19:24:32.755Z,6.55
2022-10-08T19:26:59.183Z,9.52
2022-10-08T19:29:29.061Z,11.45
2022-10-08T19:31:56.313Z,9.25
2022-10-08T19:34:24.908Z,9.25
2022-10-08T19:36:52.130Z,10.60
2022-10-08T19:39:22.416Z,9.70
2022-10-08T19:41:49.620Z,9.20
2022-10-08T19:44:17.141Z,10.25
2022-10-08T19:46:44.161Z,9.15
2022-10-08T19:49:11.024Z,8.65
2022-10-08T19:51:38.341Z,9.70
2022-10-08T19:54:05.750Z,9.27
2022-10-08T19:56:32.338Z,9.20
2022-10-08T19:58:59.126Z,9.32
2022-10-08T20:01:35.132Z,9.57
2022-10-08T20:04:03.817Z,9.15
2022-10-08T20:06:32.311Z,9.18
2022-10-08T20:09:01.577Z,8.35
2022-10-08T20:11:29.750Z,7.90
2022-10-08T20:13:56.965Z,7.55
2022-10-08T20:16:26.172Z,8.25
2022-10-08T20:18:55.757Z,7.18
2022-10-08T20:21:22.602Z,6.90
2022-10-08T20:23:49.426Z,6.65
2022-10-08T20:26:22.999Z,6.60
2022-10-08T20:28:53.033Z,6.70
2022-10-08T20:31:22.812Z,6.80
2022-10-08T20:33:58.829Z,7.28
2022-10-08T20:36:25.280Z,7.00
2022-10-08T20:38:52.078Z,7.20
2022-10-08T20:41:18.849Z,7.30
2022-10-08T20:43:45.233Z,7.70
2022-10-08T20:46:13.885Z,7.13
2022-10-08T20:48:42.202Z,7.63
2022-10-08T20:51:20.039Z,7.10
2022-10-08T20:53:52.673Z,7.25
2022-10-08T20:56:20.081Z,7.63
2022-10-08T20:58:46.663Z,9.23
2022-10-08T21:01:24.382Z,9.85
2022-10-08T21:03:51.553Z,9.02
2022-10-08T21:06:20.489Z,7.90
2022-10-08T21:08:49.064Z,6.20
2022-10-08T21:11:18.425Z,6.60
2022-10-08T21:13:45.499Z,6.60
2022-10-08T21:16:13.753Z,5.78
2022-10-08T21:18:41.084Z,5.75
2022-10-08T21:21:12.190Z,10.00
2022-10-08T21:23:39.277Z,12.07
2022-10-08T21:26:06.739Z,11.98
2022-10-08T21:28:33.473Z,10.77
2022-10-08T21:31:03.957Z,10.82
2022-10-08T21:33:33.838Z,10.45
2022-10-08T21:36:00.244Z,11.27
2022-10-08T21:38:26.608Z,11.80
2022-10-08T21:40:57.575Z,12.57
2022-10-08T21:43:24.498Z,12.57
2022-10-08T21:45:59.484Z,11.35
2022-10-08T21:48:28.146Z,10.00
2022-10-08T21:51:07.048Z,9.73
2022-10-08T21:53:35.833Z,11.30
2022-10-08T21:56:05.430Z,10.30
2022-10-08T21:58:36.341Z,11.60
2022-10-08T22:01:03.397Z,11.30
2022-10-08T22:03:29.926Z,10.23
2022-10-08T22:05:58.310Z,10.48
2022-10-08T22:08:26.478Z,8.95
2022-10-08T22:10:53.416Z,9.95
2022-10-08T22:13:20.062Z,8.73
2022-10-08T22:15:54.393Z,8.80
2022-10-08T22:18:22.326Z,9.25
2022-10-08T22:20:48.724Z,12.00
2022-10-08T22:23:15.715Z,13.60
2022-10-08T22:25:42.494Z,14.77
2022-10-08T22:28:09.521Z,13.98
2022-10-08T22:30:36.840Z,15.95
2022-10-08T22:33:03.925Z,20.15
2022-10-08T22:35:32.589Z,19.50
2022-10-08T22:37:59.874Z,17.85
2022-10-08T22:40:26.637Z,14.80
2022-10-08T22:42:53.057Z,12.02
2022-10-08T22:45:19.440Z,9.60
2022-10-08T22:47:46.235Z,9.20
2022-10-08T22:50:12.679Z,9.63
2022-10-08T22:52:39.221Z,9.38
2022-10-08T22:55:05.705Z,10.80
2022-10-08T22:57:32.107Z,11.88
2022-10-08T22:59:58.449Z,12.65
2022-10-08T23:02:24.857Z,10.40
2022-10-08T23:04:51.265Z,11.43
2022-10-08T23:07:17.650Z,10.75
2022-10-08T23:09:44.002Z,10.38
2022-10-08T23:12:10.473Z,10.20
2022-10-08T23:14:36.822Z,9.93
2022-10-08T23:17:03.410Z,9.13
2022-10-08T23:19:29.815Z,8.88
2022-10-08T23:21:56.171Z,8.40
2022-10-08T23:24:22.616Z,7.55
2022-10-08T23:26:49.762Z,7.20
2022-10-08T23:29:16.130Z,6.10
2022-10-08T23:31:42.542Z,5.60
2022-10-08T23:34:09.088Z,5.20
2022-10-08T23:36:41.240Z,5.47
2022-10-08T23:39:11.856Z,4.22
2022-10-08T23:41:38.266Z,4.13
2022-10-08T23:44:05.441Z,4.13
2022-10-08T23:46:32.278Z,4.05
2022-10-08T23:48:59.505Z,4.15
2022-10-08T23:51:31.912Z,4.05
2022-10-08T23:53:58.849Z,4.32
2022-10-08T23:56:25.243Z,3.85
2022-10-08T23:58:51.672Z,3.70
